createdAt,value
2018-07-28T00:00:33.420Z,99399.95
2018-07-28T00:03:01.575Z,99400.36
2018-07-28T00:05:29.808Z,99406.59
2018-07-28T00:07:58.271Z,99408.94
2018-07-28T00:10:26.441Z,99412.29
2018-07-28T00:12:54.793Z,99404.23
2018-07-28T00:15:22.916Z,99408.34
2018-07-28T00:19:40.281Z,99409.13
2018-07-28T00:22:08.408Z,99406.03
2018-07-28T00:24:37.406Z,99398.70
2018-07-28T00:27:05.631Z,99405.98
2018-07-28T00:29:34.070Z,99407.12
2018-07-28T00:32:03.428Z,99403.76
2018-07-28T00:34:31.756Z,99393.92
2018-07-28T00:36:59.829Z,99390.27
2018-07-28T00:39:28.565Z,99393.81
2018-07-28T00:41:56.717Z,99387.39
2018-07-28T00:44:24.832Z,99384.11
2018-07-28T00:46:54.946Z,99382.00
2018-07-28T00:49:23.443Z,99385.05
2018-07-28T00:51:52.538Z,99381.01
2018-07-28T00:54:20.641Z,99378.69
2018-07-28T00:56:48.725Z,99372.84
2018-07-28T00:59:16.837Z,99371.14
2018-07-28T01:01:44.966Z,99364.25
2018-07-28T01:04:15.761Z,99372.61
2018-07-28T01:06:43.850Z,99371.52
2018-07-28T01:09:11.954Z,99369.88
2018-07-28T01:11:40.096Z,99370.94
2018-07-28T01:14:08.305Z,99365.38
2018-07-28T01:16:36.575Z,99364.75
2018-07-28T01:19:04.811Z,99359.09
2018-07-28T01:21:32.915Z,99369.23
2018-07-28T01:24:02.577Z,99366.02
2018-07-28T01:26:30.723Z,99359.46
2018-07-28T01:29:04.249Z,99353.66
2018-07-28T01:31:32.507Z,99351.16
2018-07-28T01:34:01.473Z,99353.63
2018-07-28T01:36:31.166Z,99348.08
2018-07-28T01:38:59.362Z,99346.44
2018-07-28T01:41:28.146Z,99344.56
2018-07-28T01:43:56.293Z,99341.67
2018-07-28T01:46:24.334Z,99332.35
2018-07-28T01:48:52.386Z,99339.56
2018-07-28T02:08:38.552Z,99311.50
2018-07-28T02:28:24.997Z,99299.81
2018-07-28T02:30:53.642Z,99299.94
2018-07-28T02:33:21.969Z,99301.02
2018-07-28T02:35:50.096Z,99298.02
2018-07-28T02:55:34.979Z,99300.97
2018-07-28T02:58:03.626Z,99303.37
2018-07-28T03:00:31.707Z,99303.73
2018-07-28T03:02:59.789Z,99296.16
2018-07-28T03:22:45.203Z,99282.55
2018-07-28T03:25:14.551Z,99280.78
2018-07-28T03:45:00.945Z,99275.63
2018-07-28T03:47:29.028Z,99273.91
2018-07-28T03:49:57.202Z,99270.88
2018-07-28T03:52:25.637Z,99275.33
2018-07-28T03:54:54.330Z,99276.39
2018-07-28T03:57:22.432Z,99274.48
2018-07-28T03:59:50.834Z,99274.33
2018-07-28T04:02:19.054Z,99269.67
2018-07-28T04:22:07.775Z,99292.82
2018-07-28T04:24:36.146Z,99293.56
2018-07-28T04:27:04.882Z,99288.80
2018-07-28T04:29:35.262Z,99294.65
2018-07-28T04:32:03.290Z,99296.36
2018-07-28T04:34:31.394Z,99292.23
2018-07-28T04:36:59.529Z,99294.69
2018-07-28T04:39:27.562Z,99293.27
2018-07-28T04:41:55.698Z,99307.39
2018-07-28T04:44:23.823Z,99300.02
2018-07-28T04:46:52.100Z,99301.91
2018-07-28T04:49:20.185Z,99309.17
2018-07-28T04:51:48.370Z,99306.44
2018-07-28T04:54:16.479Z,99301.33
2018-07-28T04:56:44.550Z,99302.97
2018-07-28T04:59:12.681Z,99304.95
2018-07-28T05:01:40.815Z,99294.56
2018-07-28T05:04:08.897Z,99294.38
2018-07-28T05:06:36.993Z,99289.66
2018-07-28T05:09:07.781Z,99286.29
2018-07-28T05:11:37.172Z,99287.20
2018-07-28T05:14:06.586Z,99278.73
2018-07-28T05:16:34.663Z,99275.83
2018-07-28T05:19:02.766Z,99278.22
2018-07-28T05:21:32.035Z,99275.21
2018-07-28T05:24:00.432Z,99271.67
2018-07-28T05:26:30.253Z,99270.59
2018-07-28T05:29:01.459Z,99273.91
2018-07-28T05:31:30.545Z,99268.39
2018-07-28T05:33:59.610Z,99278.56
2018-07-28T05:36:27.933Z,99265.88
2018-07-28T05:38:56.106Z,99269.31
2018-07-28T05:41:24.219Z,99266.32
2018-07-28T05:43:52.390Z,99263.62
2018-07-28T05:46:20.505Z,99261.32
2018-07-28T05:48:51.318Z,99253.90
2018-07-28T05:51:19.381Z,99254.71
2018-07-28T05:53:47.546Z,99248.05
2018-07-28T05:56:15.691Z,99245.61
2018-07-28T05:58:43.830Z,99242.70
2018-07-28T06:01:11.926Z,99243.78
2018-07-28T06:03:40.057Z,99245.52
2018-07-28T06:06:08.205Z,99256.98
2018-07-28T06:08:36.421Z,99255.09
2018-07-28T06:11:05.137Z,99263.13
2018-07-28T06:13:33.268Z,99270.61
2018-07-28T06:16:01.463Z,99263.73
2018-07-28T06:18:29.649Z,99262.89
2018-07-28T06:20:57.810Z,99268.11
2018-07-28T06:23:26.757Z,99259.18
2018-07-28T06:25:56.068Z,99243.97
2018-07-28T06:45:40.858Z,99294.93
2018-07-28T06:48:10.146Z,99284.91
2018-07-28T07:07:55.673Z,99392.15
2018-07-28T07:10:37.519Z,99400.20
2018-07-28T07:13:05.622Z,99401.17
2018-07-28T07:15:34.638Z,99403.85
2018-07-28T07:35:18.821Z,99391.48
2018-07-28T07:37:47.133Z,99399.11
2018-07-28T07:40:15.269Z,99400.63
2018-07-28T07:42:43.503Z,99403.71
2018-07-28T07:45:11.601Z,99399.87
2018-07-28T07:47:39.769Z,99411.41
2018-07-28T07:50:07.971Z,99407.66
2018-07-28T08:09:52.664Z,99402.62
2018-07-28T08:12:20.742Z,99406.45
2018-07-28T08:14:48.842Z,99405.25
2018-07-28T08:17:16.978Z,99414.98
2018-07-28T08:19:45.042Z,99408.03
2018-07-28T08:22:13.146Z,99413.46
2018-07-28T08:24:41.940Z,99416.59
2018-07-28T08:44:27.377Z,99405.25
2018-07-28T08:46:55.732Z,99404.16
2018-07-28T08:49:23.878Z,99411.27
2018-07-28T08:51:51.927Z,99405.77
2018-07-28T08:54:20.308Z,99408.19
2018-07-28T08:56:48.395Z,99405.72
2018-07-28T09:16:33.529Z,99414.72
2018-07-28T09:19:01.651Z,99429.06
2018-07-28T09:21:30.598Z,99439.64
2018-07-28T09:23:59.560Z,99445.35
2018-07-28T09:26:28.545Z,99460.81
2018-07-28T09:46:12.753Z,99451.69
2018-07-28T09:48:40.821Z,99443.17
2018-07-28T09:51:09.014Z,99440.34
2018-07-28T09:53:37.164Z,99427.30
2018-07-28T09:56:05.563Z,99432.70
2018-07-28T09:58:34.286Z,99435.42
2018-07-28T10:18:21.672Z,99434.54
2018-07-28T10:20:49.969Z,99441.87
2018-07-28T10:40:35.443Z,99440.82
2018-07-28T11:00:19.471Z,99434.23
2018-07-28T11:20:06.990Z,99445.81
2018-07-28T11:22:35.334Z,99448.09
2018-07-28T11:42:31.026Z,99426.48
2018-07-28T11:45:07.954Z,99435.06
2018-07-28T11:47:36.467Z,99420.14
2018-07-28T11:50:04.610Z,99413.23
2018-07-28T11:52:32.851Z,99410.34
2018-07-28T11:55:01.348Z,99416.09
2018-07-28T11:57:29.458Z,99413.67
2018-07-28T11:59:58.078Z,99406.03
2018-07-28T12:02:26.198Z,99395.18
2018-07-28T12:04:54.437Z,99396.56
2018-07-28T12:07:22.530Z,99396.55
2018-07-28T12:09:50.698Z,99384.91
2018-07-28T12:49:45.658Z,99410.46
2018-07-28T12:52:13.772Z,99409.78
2018-07-28T12:54:43.214Z,99400.83
2018-07-28T12:57:13.696Z,99405.81
2018-07-28T12:59:42.359Z,99403.30
2018-07-28T13:02:10.641Z,99418.78
2018-07-28T13:04:38.754Z,99412.03
2018-07-28T13:07:07.416Z,99397.78
2018-07-28T13:09:35.846Z,99394.14
2018-07-28T13:12:04.886Z,99389.30
2018-07-28T13:14:33.285Z,99397.57
2018-07-28T13:17:02.049Z,99407.75
2018-07-28T13:19:30.275Z,99383.57
2018-07-28T13:21:58.684Z,99391.73
2018-07-28T13:24:27.202Z,99386.63
2018-07-28T13:26:55.545Z,99384.20
2018-07-28T13:29:23.832Z,99400.00
2018-07-28T13:31:51.961Z,99386.72
2018-07-28T13:51:37.226Z,99373.12
2018-07-28T13:54:05.705Z,99372.18
2018-07-28T13:56:34.074Z,99372.48
2018-07-28T13:59:02.856Z,99377.14
2018-07-28T14:01:33.578Z,99377.13
2018-07-28T14:04:01.955Z,99387.06
2018-07-28T14:06:30.721Z,99400.98
2018-07-28T14:08:59.080Z,99389.09
2018-07-28T14:28:44.156Z,99415.88
2018-07-28T14:31:12.326Z,99421.38
2018-07-28T14:33:40.759Z,99442.78
2018-07-28T14:36:09.054Z,99431.98
2018-07-28T14:38:37.198Z,99433.80
2018-07-28T14:58:23.150Z,99473.06
2018-07-28T15:00:51.338Z,99470.38
2018-07-28T15:03:19.435Z,99474.31
2018-07-28T15:23:05.297Z,99472.38
2018-07-28T15:25:33.794Z,99458.25
2018-07-28T15:28:02.110Z,99479.25
2018-07-28T15:47:47.308Z,99459.64
2018-07-28T15:50:15.391Z,99454.81
2018-07-28T15:52:43.545Z,99450.84
2018-07-28T15:55:11.686Z,99451.67
2018-07-28T15:57:39.863Z,99454.91
2018-07-28T16:00:08.076Z,99453.94
2018-07-28T16:02:36.823Z,99454.08
2018-07-28T16:05:05.837Z,99455.22
2018-07-28T16:07:34.376Z,99466.33
2018-07-28T16:27:18.357Z,99476.09
2018-07-28T16:29:46.457Z,99477.89
2018-07-28T16:32:14.680Z,99485.48
2018-07-28T16:34:42.846Z,99482.80
2018-07-28T16:37:11.953Z,99498.63
2018-07-28T16:39:40.752Z,99490.77
2018-07-28T16:59:30.193Z,99526.03
2018-07-28T17:01:59.004Z,99521.92
2018-07-28T17:04:27.438Z,99537.27
2018-07-28T17:06:57.345Z,99537.41
2018-07-28T17:09:25.560Z,99534.48
2018-07-28T17:11:54.079Z,99537.96
2018-07-28T17:14:22.225Z,99542.02
2018-07-28T17:16:50.357Z,99552.28
2018-07-28T17:19:18.450Z,99554.30
2018-07-28T17:21:47.822Z,99555.85
2018-07-28T17:24:15.909Z,99564.25
2018-07-28T17:26:43.998Z,99566.12
2018-07-28T17:29:12.422Z,99572.47
2018-07-28T17:31:40.518Z,99584.00
2018-07-28T17:34:08.946Z,99582.78
2018-07-28T17:36:37.045Z,99599.39
2018-07-28T17:39:07.316Z,99594.98
2018-07-28T17:41:35.617Z,99602.17
2018-07-28T17:44:03.845Z,99597.94
2018-07-28T17:46:34.004Z,99602.05
2018-07-28T17:49:02.902Z,99602.88
2018-07-28T17:51:30.984Z,99616.91
2018-07-28T17:53:59.158Z,99620.62
2018-07-28T17:56:28.529Z,99620.90
2018-07-28T17:58:56.623Z,99619.75
2018-07-28T18:01:24.859Z,99625.55
2018-07-28T18:03:53.284Z,99624.02
2018-07-28T18:06:22.821Z,99634.11
2018-07-28T18:08:50.902Z,99644.83
2018-07-28T18:11:20.383Z,99644.23
2018-07-28T18:13:48.602Z,99647.61
2018-07-28T18:40:46.203Z,99686.91
2018-07-28T18:43:20.532Z,99694.65
2018-07-28T18:45:48.768Z,99702.00
2018-07-28T18:48:17.022Z,99700.47
2018-07-28T18:50:45.143Z,99703.59
2018-07-28T19:10:29.854Z,99716.77
2018-07-28T19:13:03.356Z,99722.83
2018-07-28T19:15:31.496Z,99733.10
2018-07-28T19:18:04.969Z,99733.52
2018-07-28T19:20:33.264Z,99740.64
2018-07-28T19:23:07.097Z,99751.51
2018-07-28T19:25:35.464Z,99747.23
2018-07-28T19:28:09.415Z,99752.69
2018-07-28T19:30:38.962Z,99762.63
2018-07-28T19:33:07.164Z,99768.58
2018-07-28T19:35:40.457Z,99768.97
2018-07-28T19:55:24.002Z,99794.78
2018-07-28T19:57:52.281Z,99792.61
2018-07-28T20:00:20.403Z,99801.34
2018-07-28T20:02:48.491Z,99801.26
2018-07-28T20:05:19.152Z,99808.06
2018-07-28T20:07:47.216Z,99806.09
2018-07-28T20:10:16.423Z,99810.69
2018-07-28T20:12:44.506Z,99811.11
2018-07-28T20:15:12.582Z,99812.16
2018-07-28T20:17:41.437Z,99814.91
2018-07-28T20:37:25.024Z,99841.20
2018-07-28T20:39:53.559Z,99843.98
2018-07-28T20:42:21.658Z,99839.50
2018-07-28T20:44:49.804Z,99846.55
2018-07-28T20:47:20.224Z,99847.38
2018-07-28T21:07:03.275Z,99874.39
2018-07-28T21:09:31.499Z,99875.19
2018-07-28T21:11:59.570Z,99875.97
2018-07-28T21:14:27.893Z,99877.75
2018-07-28T21:16:56.001Z,99880.58
2018-07-28T21:19:24.357Z,99877.06
2018-07-28T21:21:52.645Z,99879.20
2018-07-28T21:24:23.044Z,99881.96
2018-07-28T21:26:51.180Z,99887.63
2018-07-28T21:29:19.484Z,99894.37
2018-07-28T21:31:47.726Z,99889.66
2018-07-28T21:34:15.889Z,99890.70
2018-07-28T21:36:45.574Z,99891.17
2018-07-28T21:39:13.758Z,99893.55
2018-07-28T21:41:47.066Z,99896.08
2018-07-28T21:44:15.423Z,99898.81
2018-07-28T21:46:45.179Z,99894.61
2018-07-28T21:49:13.274Z,99885.51
2018-07-28T21:51:41.662Z,99889.88
2018-07-28T21:54:09.810Z,99885.05
2018-07-28T21:56:39.617Z,99880.61
2018-07-28T21:59:08.422Z,99889.00
2018-07-28T22:01:36.633Z,99894.90
2018-07-28T22:04:04.723Z,99892.39
2018-07-28T22:06:34.961Z,99898.95
2018-07-28T22:09:04.322Z,99898.28
2018-07-28T22:11:33.579Z,99902.06
2018-07-28T22:14:01.651Z,99910.16
2018-07-28T22:16:30.113Z,99907.02
2018-07-28T22:18:58.279Z,99907.27
2018-07-28T22:21:26.709Z,99911.87
2018-07-28T22:23:54.839Z,99911.88
2018-07-28T22:43:37.903Z,99921.52
2018-07-28T22:46:05.997Z,99923.88
2018-07-28T22:48:34.201Z,99920.48
2018-07-28T22:51:02.361Z,99916.83
2018-07-28T22:53:31.033Z,99919.97
2018-07-28T22:55:59.119Z,99925.02
2018-07-28T22:58:27.214Z,99921.80
2018-07-28T23:00:55.285Z,99923.20
2018-07-28T23:03:23.437Z,99927.75
2018-07-28T23:05:51.623Z,99925.55
2018-07-28T23:08:19.880Z,99937.63
2018-07-28T23:10:48.211Z,99940.30
2018-07-28T23:13:16.445Z,99942.75
2018-07-28T23:15:44.807Z,99944.25
2018-07-28T23:18:12.977Z,99942.55
2018-07-28T23:37:57.341Z,99952.41
2018-07-28T23:40:25.571Z,99959.00
2018-07-28T23:42:53.693Z,99957.13
2018-07-28T23:45:21.775Z,99952.46
2018-07-28T23:47:49.894Z,99957.36
2018-07-28T23:50:18.007Z,99958.39
2018-07-28T23:52:46.407Z,99957.80
2018-07-28T23:55:14.717Z,99963.66
2018-07-28T23:57:42.942Z,99955.64
